Time;durP1;ratioP1;P1;durP2;ratioP2;P2;SDS_P1;SDS_P2;PMS_P1;PMS_P2;Temp;Humidity;BMP_temperature;BMP_pressure;BME280_temperature;BME280_humidity;BME280_pressure;Samples;Min_cycle;Max_cycle;Signal;HPM_P1;HPM_P2
2022/09/17 00:00:37;;;;;;;0.80;0.80;;;20.60;58.30;;;;;;4941419;29;20209;-71
2022/09/17 00:03:04;;;;;;;0.60;0.60;;;20.50;58.30;;;;;;4941433;29;20222;-73
2022/09/17 00:05:31;;;;;;;0.80;0.80;;;20.50;58.30;;;;;;4941238;29;20287;-71
2022/09/17 00:07:58;;;;;;;0.65;0.65;;;20.50;58.30;;;;;;4958421;29;20218;-71
2022/09/17 00:10:25;;;;;;;0.70;0.70;;;20.50;58.30;;;;;;4941326;29;20247;-71
2022/09/17 00:12:52;;;;;;;0.73;0.73;;;20.60;58.40;;;;;;4941363;29;20206;-71
2022/09/17 00:15:19;;;;;;;1.02;0.93;;;20.50;58.30;;;;;;4941181;29;20203;-72
2022/09/17 00:17:47;;;;;;;0.70;0.70;;;20.50;58.30;;;;;;4958267;29;20241;-72
2022/09/17 00:20:14;;;;;;;0.65;0.60;;;20.50;58.40;;;;;;4957118;28;20646;-72
2022/09/17 00:22:41;;;;;;;0.57;0.57;;;20.50;58.40;;;;;;4940924;29;20214;-72
2022/09/17 00:25:08;;;;;;;0.70;0.70;;;20.50;58.40;;;;;;4928650;28;20652;-72
2022/09/17 00:27:35;;;;;;;0.80;0.80;;;20.50;58.40;;;;;;4960451;28;20223;-72
2022/09/17 00:30:02;;;;;;;1.30;0.80;;;20.50;58.40;;;;;;4959981;28;20308;-72
2022/09/17 00:32:29;;;;;;;0.68;0.68;;;20.50;58.40;;;;;;4960515;28;20202;-72
2022/09/17 00:34:58;;;;;;;0.85;0.85;;;20.50;58.40;;;;;;4959874;28;20233;-72
2022/09/17 00:37:25;;;;;;;0.52;0.52;;;20.50;58.40;;;;;;4959814;28;20206;-72
2022/09/17 00:39:51;;;;;;;0.77;0.60;;;20.50;58.40;;;;;;4959786;28;20273;-72
2022/09/17 00:42:18;;;;;;;0.60;0.60;;;20.50;58.40;;;;;;4959818;28;20691;-72
2022/09/17 00:44:48;;;;;;;0.85;0.77;;;20.50;58.40;;;;;;4959810;28;20599;-72
2022/09/17 00:47:21;;;;;;;0.88;0.60;;;20.50;58.40;;;;;;4959699;28;20225;-72
2022/09/17 00:49:48;;;;;;;1.42;0.77;;;20.50;58.40;;;;;;4960786;28;20624;-72
2022/09/17 00:52:20;;;;;;;0.70;0.70;;;20.50;58.40;;;;;;4959598;28;20209;-72
2022/09/17 00:54:54;;;;;;;0.65;0.65;;;20.40;58.40;;;;;;4959427;28;20305;-72
2022/09/17 00:57:21;;;;;;;0.50;0.50;;;20.50;58.40;;;;;;4959438;28;20198;-72
2022/09/17 00:59:48;;;;;;;0.95;0.95;;;20.50;58.40;;;;;;4959495;28;20225;-72
2022/09/17 01:02:15;;;;;;;0.70;0.70;;;20.40;58.40;;;;;;4960007;28;20208;-72
2022/09/17 01:04:42;;;;;;;0.50;0.50;;;20.50;58.50;;;;;;4959506;28;20209;-72
2022/09/17 01:07:14;;;;;;;0.50;0.50;;;20.40;58.40;;;;;;4976479;28;20334;-72
2022/09/17 01:09:47;;;;;;;0.70;0.63;;;20.40;58.40;;;;;;4959328;28;20652;-72
2022/09/17 01:12:21;;;;;;;0.70;0.70;;;20.40;58.50;;;;;;4976749;28;20206;-72
2022/09/17 01:15:00;;;;;;;0.73;0.73;;;20.40;58.50;;;;;;4976750;28;20186;-72
2022/09/17 01:17:29;;;;;;;0.65;0.50;;;20.40;58.50;;;;;;4959105;28;20624;-72
2022/09/17 01:20:20;;;;;;;0.82;0.52;;;20.40;58.40;;;;;;4959090;28;20567;-72
2022/09/17 01:22:56;;;;;;;0.50;0.50;;;20.40;59.00;;;;;;4959159;28;20198;-72
2022/09/17 01:25:24;;;;;;;0.65;0.65;;;20.40;58.40;;;;;;4959118;28;20576;-72
2022/09/17 01:28:35;;;;;;;0.57;0.57;;;20.40;58.50;;;;;;4976500;28;20252;-72
2022/09/17 01:31:08;;;;;;;0.60;0.60;;;20.40;58.40;;;;;;4900853;29;20227;-72
2022/09/17 01:33:39;;;;;;;0.70;0.70;;;20.40;58.40;;;;;;4901276;29;20215;-72
2022/09/17 01:36:14;;;;;;;0.70;0.70;;;20.40;58.50;;;;;;4930771;28;20209;-72
2022/09/17 01:38:45;;;;;;;0.50;0.50;;;20.30;58.40;;;;;;4958924;28;20253;-72
2022/09/17 01:41:15;;;;;;;0.70;0.70;;;20.40;58.50;;;;;;4958755;28;20634;-72
2022/09/17 01:43:46;;;;;;;0.68;0.68;;;20.40;58.50;;;;;;4958786;28;20249;-72
2022/09/17 01:46:17;;;;;;;0.82;0.68;;;20.30;58.50;;;;;;4943014;28;20574;-72
2022/09/17 01:48:45;;;;;;;0.60;0.60;;;20.30;58.40;;;;;;4976129;28;20260;-72
2022/09/17 01:51:15;;;;;;;0.63;0.50;;;20.30;58.40;;;;;;4959884;28;20202;-72
2022/09/17 01:53:44;;;;;;;0.70;0.70;;;20.30;58.50;;;;;;4958433;28;20209;-72
2022/09/17 01:56:12;;;;;;;0.50;0.50;;;20.30;58.50;;;;;;4959257;28;20198;-72
2022/09/17 01:58:41;;;;;;;0.52;0.52;;;20.30;58.50;;;;;;4975899;28;20213;-72
2022/09/17 02:01:08;;;;;;;0.50;0.50;;;20.30;58.50;;;;;;4958636;28;20206;-73
2022/09/17 02:03:38;;;;;;;0.55;0.50;;;20.30;58.50;;;;;;4958345;28;20202;-73
2022/09/17 02:06:08;;;;;;;0.60;0.50;;;20.30;58.50;;;;;;4958422;28;20228;-73
2022/09/17 02:08:36;;;;;;;0.57;0.57;;;20.30;58.50;;;;;;4958257;28;20229;-72
2022/09/17 02:11:05;;;;;;;0.68;0.68;;;20.20;58.50;;;;;;4958583;28;20665;-72
2022/09/17 02:13:34;;;;;;;0.57;0.55;;;20.20;58.50;;;;;;4959017;28;20213;-72
2022/09/17 02:16:05;;;;;;;1.00;0.88;;;20.20;58.50;;;;;;4958339;28;20699;-72
2022/09/17 02:18:37;;;;;;;0.47;0.47;;;20.30;58.60;;;;;;4958074;28;20711;-72
2022/09/17 02:21:07;;;;;;;0.70;0.70;;;20.20;58.50;;;;;;4958276;28;20198;-72
2022/09/17 02:23:35;;;;;;;0.68;0.68;;;20.20;58.40;;;;;;4957852;28;20229;-72
2022/09/17 02:26:05;;;;;;;0.75;0.73;;;20.30;58.50;;;;;;4958052;28;20214;-72
2022/09/17 02:28:34;;;;;;;0.73;0.68;;;20.20;58.40;;;;;;4957822;28;20759;-72
2022/09/17 02:31:01;;;;;;;0.50;0.50;;;20.20;58.40;;;;;;4958055;28;20194;-72
2022/09/17 02:33:28;;;;;;;0.60;0.60;;;20.20;58.30;;;;;;4942009;28;20577;-72
2022/09/17 02:35:56;;;;;;;0.65;0.65;;;20.20;58.30;;;;;;4958035;28;20202;-72
2022/09/17 02:38:24;;;;;;;0.40;0.40;;;20.20;58.30;;;;;;4957643;28;20201;-72
2022/09/17 02:40:54;;;;;;;0.50;0.50;;;20.30;58.50;;;;;;4957632;28;20200;-72
2022/09/17 02:43:24;;;;;;;0.73;0.73;;;20.20;58.30;;;;;;4957240;28;20208;-72
2022/09/17 02:45:56;;;;;;;0.70;0.70;;;20.20;58.30;;;;;;4975413;28;20186;-72
2022/09/17 02:48:38;;;;;;;0.60;0.60;;;20.20;58.30;;;;;;4957448;28;20222;-72
2022/09/17 02:51:18;;;;;;;0.70;0.70;;;20.20;58.30;;;;;;4957700;28;20206;-72
2022/09/17 02:53:48;;;;;;;0.68;0.68;;;20.20;58.30;;;;;;4957683;28;20218;-72
2022/09/17 02:56:20;;;;;;;0.60;0.60;;;20.20;58.30;;;;;;4957655;28;20680;-72
2022/09/17 02:58:51;;;;;;;0.60;0.60;;;20.20;58.30;;;;;;4974995;28;20251;-72
2022/09/17 03:01:21;;;;;;;0.70;0.70;;;20.20;58.30;;;;;;4975069;28;20601;-72
2022/09/17 03:03:49;;;;;;;0.55;0.55;;;20.20;58.30;;;;;;4957579;28;20198;-72
2022/09/17 03:06:17;;;;;;;0.60;0.60;;;20.10;58.30;;;;;;4957509;28;20201;-72
2022/09/17 03:08:46;;;;;;;0.63;0.63;;;20.10;58.20;;;;;;4957300;28;20285;-72
2022/09/17 03:11:13;;;;;;;1.05;0.70;;;20.20;58.80;;;;;;4957365;28;20194;-72
2022/09/17 03:13:41;;;;;;;0.85;0.85;;;20.20;58.10;;;;;;4957399;28;20208;-72
2022/09/17 03:16:08;;;;;;;1.50;0.80;;;20.20;58.00;;;;;;4957397;28;20202;-72
2022/09/17 03:18:35;;;;;;;0.80;0.80;;;20.20;57.90;;;;;;4957223;28;20696;-72
2022/09/17 03:21:03;;;;;;;0.68;0.68;;;20.20;57.90;;;;;;4974767;28;20197;-72
2022/09/17 03:23:31;;;;;;;0.60;0.60;;;20.20;57.90;;;;;;4957268;28;20202;-72
2022/09/17 03:25:59;;;;;;;0.57;0.57;;;20.30;58.00;;;;;;4957362;28;20210;-72
2022/09/17 03:28:25;;;;;;;1.10;0.75;;;20.30;57.90;;;;;;4957207;28;20218;-72
2022/09/17 03:30:53;;;;;;;0.82;0.60;;;20.30;57.70;;;;;;4957385;28;20202;-72
2022/09/17 03:33:20;;;;;;;0.70;0.70;;;20.40;57.70;;;;;;4957360;28;20233;-72
2022/09/17 03:35:47;;;;;;;0.57;0.57;;;20.40;57.60;;;;;;4941372;28;20237;-72
2022/09/17 03:38:14;;;;;;;0.73;0.73;;;20.50;57.60;;;;;;4957468;28;20297;-72
2022/09/17 03:40:43;;;;;;;0.60;0.60;;;20.40;57.40;;;;;;4957220;28;20206;-72
2022/09/17 03:43:10;;;;;;;1.45;0.80;;;20.50;57.40;;;;;;4957273;28;20301;-72
2022/09/17 03:45:37;;;;;;;0.75;0.60;;;20.50;57.40;;;;;;4957151;28;20202;-72
2022/09/17 03:48:04;;;;;;;0.85;0.68;;;20.50;57.30;;;;;;4957393;28;20222;-72
2022/09/17 03:50:33;;;;;;;0.70;0.60;;;20.50;57.30;;;;;;4957073;28;20285;-72
2022/09/17 03:52:59;;;;;;;0.63;0.63;;;20.50;57.20;;;;;;4957053;28;20205;-72
2022/09/17 03:55:26;;;;;;;0.60;0.60;;;20.50;57.20;;;;;;4959204;28;20202;-72
2022/09/17 03:57:55;;;;;;;0.60;0.60;;;20.50;57.10;;;;;;4960720;28;20202;-72
2022/09/17 04:00:22;;;;;;;0.45;0.40;;;20.50;57.20;;;;;;4960428;28;20225;-72
2022/09/17 04:02:49;;;;;;;0.70;0.70;;;20.50;57.10;;;;;;4960521;28;20245;-72
2022/09/17 04:05:17;;;;;;;0.73;0.73;;;20.50;57.10;;;;;;4960658;28;20390;-72
2022/09/17 04:07:44;;;;;;;0.60;0.60;;;20.50;57.10;;;;;;4960544;28;20253;-72
2022/09/17 04:10:11;;;;;;;0.70;0.70;;;20.50;57.10;;;;;;4978304;28;20241;-72
2022/09/17 04:12:38;;;;;;;1.05;0.70;;;20.50;57.10;;;;;;4960270;28;20257;-72
2022/09/17 04:15:07;;;;;;;0.93;0.80;;;20.50;57.00;;;;;;4960654;28;20238;-72
2022/09/17 04:17:35;;;;;;;1.13;0.80;;;20.50;57.10;;;;;;4961585;28;20205;-73
2022/09/17 04:20:02;;;;;;;0.70;0.50;;;20.50;57.00;;;;;;4978519;28;20210;-72
2022/09/17 04:22:29;;;;;;;0.95;0.90;;;20.50;57.10;;;;;;4960147;28;20198;-71
2022/09/17 04:24:56;;;;;;;1.27;0.80;;;20.50;57.10;;;;;;4957776;28;20198;-71
2022/09/17 04:27:23;;;;;;;0.70;0.70;;;20.50;57.10;;;;;;4940974;29;20207;-71
2022/09/17 04:29:50;;;;;;;0.80;0.73;;;20.50;57.10;;;;;;4958261;28;20211;-71
2022/09/17 04:32:18;;;;;;;0.70;0.70;;;20.40;57.10;;;;;;4941134;29;20207;-71
2022/09/17 04:34:46;;;;;;;0.68;0.60;;;20.40;57.30;;;;;;4957969;29;20253;-71
2022/09/17 04:37:12;;;;;;;1.20;1.10;;;20.40;57.30;;;;;;4940691;29;20202;-71
2022/09/17 04:39:39;;;;;;;0.80;0.80;;;20.30;57.40;;;;;;4941277;29;20230;-71
2022/09/17 04:42:06;;;;;;;1.00;0.90;;;20.30;57.50;;;;;;4957981;29;20650;-71
2022/09/17 04:44:34;;;;;;;2.90;1.00;;;20.30;57.30;;;;;;4940882;29;20297;-71
2022/09/17 04:47:01;;;;;;;1.20;0.80;;;20.30;57.00;;;;;;4957705;29;20535;-71
2022/09/17 04:49:29;;;;;;;2.40;0.90;;;20.30;56.10;;;;;;4957450;28;20317;-71
2022/09/17 04:51:56;;;;;;;3.38;1.00;;;20.30;54.10;;;;;;4940617;29;20752;-71
2022/09/17 04:54:23;;;;;;;2.22;0.90;;;20.20;53.70;;;;;;4924866;29;20229;-71
2022/09/17 04:56:50;;;;;;;4.13;1.52;;;20.20;53.30;;;;;;4940377;29;20289;-71
2022/09/17 04:59:17;;;;;;;5.00;1.33;;;20.20;53.50;;;;;;4940284;29;20215;-71
2022/09/17 05:01:45;;;;;;;2.42;1.20;;;20.20;53.90;;;;;;4940280;29;20202;-71
2022/09/17 05:04:11;;;;;;;2.88;1.00;;;20.20;54.00;;;;;;4940367;29;20234;-71
2022/09/17 05:06:40;;;;;;;2.50;0.90;;;20.20;54.70;;;;;;4939691;29;20222;-71
2022/09/17 05:09:07;;;;;;;4.45;1.02;;;20.10;54.80;;;;;;4940150;29;20274;-70
2022/09/17 05:11:34;;;;;;;1.50;0.98;;;20.10;55.20;;;;;;4940059;29;20207;-70
2022/09/17 05:14:01;;;;;;;2.58;1.15;;;20.10;55.30;;;;;;4940035;29;20206;-70
2022/09/17 05:16:28;;;;;;;2.85;1.27;;;20.10;55.30;;;;;;4957399;29;20207;-70
2022/09/17 05:18:56;;;;;;;3.10;1.27;;;20.10;55.30;;;;;;4940297;29;20230;-71
2022/09/17 05:21:23;;;;;;;2.40;0.98;;;20.10;55.30;;;;;;4924522;29;20203;-71
2022/09/17 05:23:51;;;;;;;1.20;0.90;;;20.20;55.70;;;;;;4957415;29;20199;-72
2022/09/17 05:26:18;;;;;;;2.63;1.15;;;20.20;55.50;;;;;;4952749;28;20573;-71
2022/09/17 05:28:45;;;;;;;1.80;1.10;;;20.20;55.20;;;;;;4958808;28;20237;-71
2022/09/17 05:31:13;;;;;;;2.40;1.05;;;20.20;54.00;;;;;;4958924;28;20206;-71
2022/09/17 05:33:40;;;;;;;2.42;1.10;;;20.20;53.70;;;;;;4958753;28;20724;-71
2022/09/17 05:36:08;;;;;;;1.13;0.90;;;20.20;53.60;;;;;;4976131;28;20195;-71
2022/09/17 05:38:35;;;;;;;2.35;1.00;;;20.20;53.50;;;;;;4943014;28;20261;-71
2022/09/17 05:41:05;;;;;;;2.03;0.90;;;20.20;53.20;;;;;;4976050;28;20194;-71
2022/09/17 05:43:33;;;;;;;3.28;1.13;;;20.20;53.10;;;;;;4958885;28;20194;-71
2022/09/17 05:46:01;;;;;;;0.90;0.80;;;20.20;54.20;;;;;;4976230;28;20668;-71
2022/09/17 05:48:29;;;;;;;1.77;1.17;;;20.20;54.50;;;;;;4958305;28;20339;-71
2022/09/17 05:50:56;;;;;;;1.15;0.95;;;20.20;54.30;;;;;;4959100;28;20649;-70
2022/09/17 05:53:23;;;;;;;2.85;1.05;;;20.10;54.60;;;;;;4942599;28;20217;-70
2022/09/17 05:55:50;;;;;;;1.40;1.00;;;20.20;54.90;;;;;;4942702;28;20206;-71
2022/09/17 05:58:19;;;;;;;1.05;0.82;;;20.20;55.00;;;;;;4958283;28;20206;-71
2022/09/17 06:00:47;;;;;;;1.58;1.00;;;20.20;55.00;;;;;;4976005;28;20252;-71
2022/09/17 06:03:15;;;;;;;2.50;1.00;;;20.30;55.00;;;;;;4959152;28;20205;-71
2022/09/17 06:05:42;;;;;;;1.67;0.90;;;20.20;54.80;;;;;;4958205;28;20209;-72
2022/09/17 06:08:09;;;;;;;2.63;1.10;;;20.30;54.60;;;;;;4958312;28;20230;-72
2022/09/17 06:10:36;;;;;;;2.35;1.00;;;20.30;54.10;;;;;;4958307;28;20202;-72
2022/09/17 06:13:03;;;;;;;2.03;1.10;;;20.40;54.20;;;;;;4958023;28;20233;-72
2022/09/17 06:15:32;;;;;;;2.45;1.00;;;20.40;54.10;;;;;;4958238;28;20238;-72
2022/09/17 06:17:59;;;;;;;1.73;1.10;;;20.40;54.10;;;;;;4957285;28;20282;-72
2022/09/17 06:20:26;;;;;;;2.72;1.10;;;20.50;53.90;;;;;;4958120;28;20218;-72
2022/09/17 06:22:56;;;;;;;1.88;0.90;;;20.60;53.80;;;;;;4958184;28;20198;-72
2022/09/17 06:25:24;;;;;;;1.05;0.80;;;20.60;53.60;;;;;;4957859;28;20707;-72
2022/09/17 06:27:51;;;;;;;1.50;0.90;;;20.70;53.70;;;;;;4975879;28;20632;-71
2022/09/17 06:30:18;;;;;;;2.05;1.10;;;20.70;53.60;;;;;;4959782;28;20221;-71
2022/09/17 06:32:47;;;;;;;2.83;0.90;;;20.70;53.40;;;;;;4957994;28;20208;-71
2022/09/17 06:35:14;;;;;;;1.73;1.00;;;20.80;53.30;;;;;;4942109;28;20217;-71
2022/09/17 06:37:41;;;;;;;2.53;1.00;;;20.80;53.20;;;;;;4957799;28;20237;-71
2022/09/17 06:40:09;;;;;;;1.83;1.00;;;20.80;53.10;;;;;;4957832;28;20220;-71
2022/09/17 06:42:36;;;;;;;1.88;1.10;;;20.80;53.00;;;;;;4958029;28;20543;-71
2022/09/17 06:45:04;;;;;;;1.48;1.00;;;20.80;52.90;;;;;;4975188;28;20186;-71
2022/09/17 06:47:31;;;;;;;1.60;1.00;;;20.80;53.00;;;;;;4957945;28;20249;-71
2022/09/17 06:50:00;;;;;;;2.22;1.02;;;20.90;53.00;;;;;;4958601;28;20252;-71
2022/09/17 06:52:28;;;;;;;1.25;1.00;;;20.80;52.80;;;;;;4958306;28;20200;-71
2022/09/17 06:54:55;;;;;;;2.20;1.05;;;20.80;52.80;;;;;;4958095;28;20206;-71
2022/09/17 06:57:22;;;;;;;2.53;1.40;;;20.80;52.80;;;;;;4957569;28;20202;-71
2022/09/17 06:59:50;;;;;;;2.10;1.17;;;20.80;52.70;;;;;;4957637;28;20218;-71
2022/09/17 07:02:17;;;;;;;2.47;1.00;;;20.80;52.80;;;;;;4957648;28;20285;-71
2022/09/17 07:04:44;;;;;;;1.60;1.17;;;20.80;52.80;;;;;;4957598;28;20202;-71
2022/09/17 07:07:12;;;;;;;1.42;0.93;;;20.80;52.80;;;;;;4958823;28;20202;-71
2022/09/17 07:09:40;;;;;;;1.48;0.90;;;20.80;53.60;;;;;;4957368;28;20332;-71
2022/09/17 07:12:08;;;;;;;2.20;1.15;;;20.80;52.90;;;;;;4957419;28;20213;-71
2022/09/17 07:14:35;;;;;;;1.58;1.10;;;20.80;53.00;;;;;;4957551;28;20206;-71
2022/09/17 07:17:02;;;;;;;1.08;0.90;;;20.70;52.90;;;;;;4974752;28;20674;-71
2022/09/17 07:19:30;;;;;;;1.73;1.00;;;20.70;52.90;;;;;;4974629;28;20210;-71
2022/09/17 07:21:57;;;;;;;1.05;0.95;;;20.70;53.00;;;;;;4957507;28;20289;-71
2022/09/17 07:24:25;;;;;;;3.33;1.30;;;20.80;53.00;;;;;;4957443;28;20208;-71
2022/09/17 07:26:52;;;;;;;1.73;1.10;;;20.70;52.90;;;;;;4957424;28;20225;-71
2022/09/17 07:29:20;;;;;;;1.75;1.02;;;20.70;52.80;;;;;;4974942;28;20580;-71
2022/09/17 07:31:47;;;;;;;1.67;1.02;;;20.70;53.00;;;;;;4978431;28;20598;-71
2022/09/17 07:34:14;;;;;;;1.90;1.10;;;20.70;53.00;;;;;;4961133;28;20260;-71
2022/09/17 07:36:43;;;;;;;3.55;1.30;;;20.70;53.00;;;;;;4960774;28;20201;-71
2022/09/17 07:39:12;;;;;;;1.67;1.02;;;20.70;53.00;;;;;;4960794;28;20703;-71
2022/09/17 07:41:40;;;;;;;1.52;1.10;;;20.70;53.10;;;;;;4960842;28;20198;-71
2022/09/17 07:44:08;;;;;;;2.50;1.20;;;20.60;53.00;;;;;;4961177;28;20257;-72
2022/09/17 07:46:35;;;;;;;2.65;1.10;;;20.60;53.00;;;;;;4960691;28;20202;-72
2022/09/17 07:49:02;;;;;;;1.50;0.85;;;20.60;53.00;;;;;;4961228;28;20222;-72
2022/09/17 07:51:30;;;;;;;2.47;1.10;;;20.60;53.00;;;;;;4960554;28;20206;-72
2022/09/17 07:53:58;;;;;;;1.55;1.10;;;20.70;53.00;;;;;;4978397;28;20190;-72
2022/09/17 07:56:25;;;;;;;2.85;1.33;;;20.70;53.00;;;;;;4960449;28;20208;-72
2022/09/17 07:58:54;;;;;;;1.45;1.10;;;20.70;52.90;;;;;;4960724;28;20249;-71
2022/09/17 08:01:21;;;;;;;1.83;0.98;;;20.70;53.00;;;;;;4960745;28;20205;-71
2022/09/17 08:03:49;;;;;;;1.50;1.23;;;20.70;53.00;;;;;;4961399;28;20560;-71
2022/09/17 08:06:17;;;;;;;2.38;0.90;;;20.70;53.00;;;;;;4960420;28;20206;-71
2022/09/17 08:08:44;;;;;;;1.55;1.20;;;20.70;53.10;;;;;;4961913;28;20230;-71
2022/09/17 08:11:12;;;;;;;1.58;1.17;;;20.70;53.10;;;;;;4960389;28;20205;-71
2022/09/17 08:13:39;;;;;;;2.95;1.23;;;20.70;53.20;;;;;;4977964;28;20218;-71
2022/09/17 08:16:08;;;;;;;1.75;1.08;;;20.70;53.20;;;;;;4960300;28;20274;-71
2022/09/17 08:18:36;;;;;;;2.25;0.98;;;20.70;53.00;;;;;;4960196;28;20228;-71
2022/09/17 08:21:04;;;;;;;1.75;0.88;;;20.80;53.00;;;;;;4960822;28;20214;-71
2022/09/17 08:23:31;;;;;;;2.33;1.02;;;20.80;53.00;;;;;;4960152;28;20238;-71
2022/09/17 08:25:59;;;;;;;1.70;1.00;;;20.80;53.00;;;;;;4960363;28;20683;-71
2022/09/17 08:28:28;;;;;;;1.25;1.10;;;20.80;52.90;;;;;;4960355;28;20618;-71
2022/09/17 08:30:55;;;;;;;1.35;0.93;;;20.80;52.80;;;;;;4960142;28;20186;-71
2022/09/17 08:33:23;;;;;;;0.90;0.90;;;20.80;52.70;;;;;;4944071;28;20202;-71
2022/09/17 08:35:53;;;;;;;1.42;1.10;;;20.80;52.40;;;;;;4959888;28;20225;-71
2022/09/17 08:38:21;;;;;;;2.38;0.98;;;20.90;52.40;;;;;;4959832;28;20210;-71
2022/09/17 08:40:56;;;;;;;2.33;1.00;;;20.90;52.30;;;;;;4959309;28;20191;-71
2022/09/17 08:43:23;;;;;;;1.42;1.00;;;21.00;52.30;;;;;;4959849;28;20205;-71
2022/09/17 08:45:53;;;;;;;1.95;1.05;;;21.00;52.10;;;;;;4959839;28;20194;-71
2022/09/17 08:48:20;;;;;;;1.20;1.00;;;21.10;51.90;;;;;;4960010;28;20261;-71
2022/09/17 08:50:49;;;;;;;2.63;1.05;;;21.20;51.70;;;;;;4961373;28;20221;-71
2022/09/17 08:53:30;;;;;;;1.48;1.00;;;21.20;51.50;;;;;;4959815;28;20198;-71
2022/09/17 08:56:00;;;;;;;2.33;1.10;;;21.30;51.40;;;;;;4959841;28;20206;-71
2022/09/17 08:58:51;;;;;;;1.42;1.00;;;21.40;51.30;;;;;;4959947;28;20269;-71
2022/09/17 09:01:27;;;;;;;0.90;0.90;;;21.50;51.10;;;;;;4959627;28;20194;-71
2022/09/17 09:04:18;;;;;;;1.92;0.98;;;21.60;50.80;;;;;;4959647;28;20201;-71
2022/09/17 09:06:47;;;;;;;2.08;1.17;;;21.70;50.70;;;;;;4953408;28;20257;-71
2022/09/17 09:09:15;;;;;;;1.35;0.93;;;21.80;50.40;;;;;;4959565;28;20241;-71
2022/09/17 09:11:43;;;;;;;2.65;1.10;;;22.00;50.00;;;;;;4959260;28;20233;-71
2022/09/17 09:14:22;;;;;;;3.40;1.10;;;22.20;49.50;;;;;;4959339;28;20199;-71
2022/09/17 09:16:49;;;;;;;2.25;1.33;;;22.40;49.20;;;;;;4959208;28;20573;-72
2022/09/17 09:19:21;;;;;;;2.15;1.23;;;22.50;48.80;;;;;;4943296;28;20249;-72
2022/09/17 09:21:57;;;;;;;1.13;0.82;;;22.60;48.80;;;;;;4959045;28;20237;-72
2022/09/17 09:24:25;;;;;;;1.83;1.23;;;22.60;48.90;;;;;;4959669;28;20205;-72
2022/09/17 09:26:55;;;;;;;1.63;1.10;;;22.60;48.70;;;;;;4959603;28;20216;-72
2022/09/17 09:29:25;;;;;;;2.33;1.27;;;22.50;48.60;;;;;;4958821;28;20233;-72
2022/09/17 09:32:11;;;;;;;1.10;0.98;;;22.50;48.80;;;;;;4958920;28;20217;-72
2022/09/17 09:34:38;;;;;;;1.63;0.95;;;22.50;48.90;;;;;;4957990;28;20269;-72
2022/09/17 09:37:12;;;;;;;3.70;1.30;;;22.50;48.90;;;;;;4959022;28;20198;-72
2022/09/17 09:39:39;;;;;;;3.30;1.33;;;22.40;48.90;;;;;;4958694;28;20218;-72
2022/09/17 09:42:09;;;;;;;2.35;1.23;;;22.40;48.90;;;;;;4976078;28;20217;-72
2022/09/17 09:44:36;;;;;;;3.17;1.38;;;22.40;49.10;;;;;;4958996;28;20202;-72
2022/09/17 09:47:12;;;;;;;3.20;1.33;;;22.40;49.00;;;;;;4958807;28;20253;-72
2022/09/17 09:49:56;;;;;;;2.63;1.10;;;22.40;49.00;;;;;;4958438;28;20284;-72
2022/09/17 09:52:32;;;;;;;1.83;1.13;;;22.40;49.10;;;;;;4958477;28;20197;-72
2022/09/17 09:55:05;;;;;;;2.40;1.10;;;22.40;49.10;;;;;;4976032;28;20229;-72
2022/09/17 09:57:37;;;;;;;1.55;1.10;;;22.40;49.10;;;;;;4958518;28;20210;-72
2022/09/17 10:00:28;;;;;;;3.35;1.40;;;22.40;49.20;;;;;;4958283;28;20218;-72
2022/09/17 10:02:59;;;;;;;1.35;1.08;;;22.40;49.00;;;;;;4958382;28;20647;-72
2022/09/17 10:05:27;;;;;;;4.15;1.42;;;22.40;49.00;;;;;;4975511;28;20265;-71
2022/09/17 10:07:55;;;;;;;2.17;1.25;;;22.40;49.00;;;;;;4975525;28;20194;-71
2022/09/17 10:10:22;;;;;;;3.17;1.40;;;22.40;49.00;;;;;;4975407;28;20264;-71
2022/09/17 10:12:49;;;;;;;2.55;1.55;;;22.40;49.00;;;;;;4958226;28;20260;-71
2022/09/17 10:15:24;;;;;;;4.13;1.10;;;22.40;49.00;;;;;;4958071;28;20226;-72
2022/09/17 10:18:16;;;;;;;2.13;1.25;;;22.40;49.00;;;;;;4958768;28;20205;-72
2022/09/17 10:20:50;;;;;;;2.13;1.30;;;22.40;49.00;;;;;;4958000;28;20245;-72
2022/09/17 10:23:19;;;;;;;3.33;1.42;;;22.40;49.00;;;;;;4957913;28;20201;-72
2022/09/17 10:25:46;;;;;;;3.33;1.50;;;22.40;49.00;;;;;;4957958;28;20304;-72
2022/09/17 10:28:38;;;;;;;4.05;1.50;;;22.40;49.00;;;;;;4957824;28;20226;-72
2022/09/17 10:31:09;;;;;;;4.32;1.60;;;22.50;49.00;;;;;;4958008;28;20222;-72
2022/09/17 10:33:39;;;;;;;3.58;1.60;;;22.50;49.00;;;;;;4942236;28;20190;-72
2022/09/17 10:36:08;;;;;;;1.83;1.33;;;22.50;48.90;;;;;;4958259;28;20194;-72
2022/09/17 10:38:38;;;;;;;2.53;1.40;;;22.50;48.80;;;;;;4957702;28;20217;-72
2022/09/17 10:41:14;;;;;;;2.95;1.40;;;22.50;48.70;;;;;;4957780;28;20249;-72
2022/09/17 10:43:41;;;;;;;3.83;1.42;;;22.60;48.90;;;;;;4975340;28;20523;-72
2022/09/17 10:46:09;;;;;;;2.35;1.20;;;22.60;48.80;;;;;;4957788;28;20206;-72
2022/09/17 10:48:40;;;;;;;3.67;1.30;;;22.70;48.80;;;;;;4957455;28;20222;-72
2022/09/17 10:51:07;;;;;;;2.83;1.58;;;22.70;48.70;;;;;;4957964;28;20213;-72
2022/09/17 10:53:39;;;;;;;1.90;1.35;;;22.80;48.60;;;;;;4957758;28;20198;-72
2022/09/17 10:56:09;;;;;;;4.20;1.40;;;22.80;48.50;;;;;;4958456;28;20198;-72
2022/09/17 10:58:44;;;;;;;2.53;1.27;;;22.80;48.50;;;;;;4958399;28;20230;-72
2022/09/17 11:01:21;;;;;;;2.40;1.20;;;22.90;48.40;;;;;;4957760;28;20292;-72
2022/09/17 11:04:06;;;;;;;2.25;1.30;;;22.90;48.10;;;;;;4957681;28;20570;-72
2022/09/17 11:06:56;;;;;;;1.80;1.27;;;23.00;48.10;;;;;;4961634;28;20273;-72
2022/09/17 11:09:30;;;;;;;2.67;1.30;;;23.00;48.00;;;;;;4979335;28;20213;-70
2022/09/17 11:12:17;;;;;;;2.13;1.38;;;23.00;47.60;;;;;;4961578;28;20240;-70
2022/09/17 11:14:50;;;;;;;3.78;1.23;;;23.10;47.60;;;;;;4961352;28;20699;-70
2022/09/17 11:17:34;;;;;;;2.70;1.35;;;23.10;47.50;;;;;;4961713;28;20640;-71
2022/09/17 11:20:04;;;;;;;2.58;1.50;;;23.10;47.40;;;;;;4961705;28;20273;-71
2022/09/17 11:22:35;;;;;;;1.88;1.30;;;23.20;47.20;;;;;;4961274;28;20601;-72
2022/09/17 11:25:19;;;;;;;2.95;1.40;;;23.20;47.10;;;;;;4958246;28;20202;-71
2022/09/17 11:28:10;;;;;;;3.33;1.50;;;23.30;47.10;;;;;;4942007;29;20191;-71
2022/09/17 11:30:43;;;;;;;2.15;1.25;;;23.30;47.00;;;;;;4941949;29;20578;-71
2022/09/17 11:33:24;;;;;;;2.22;1.27;;;23.30;47.00;;;;;;4941947;29;20717;-71
2022/09/17 11:35:53;;;;;;;2.33;1.30;;;23.30;46.90;;;;;;4941894;29;20195;-71
2022/09/17 11:38:22;;;;;;;2.35;1.50;;;23.30;46.80;;;;;;4941820;28;20203;-71
2022/09/17 11:40:52;;;;;;;2.28;1.30;;;23.30;46.80;;;;;;4958908;29;20187;-71
2022/09/17 11:43:22;;;;;;;1.55;1.08;;;23.30;46.60;;;;;;4958969;29;20211;-71
2022/09/17 11:45:56;;;;;;;2.08;1.20;;;23.30;46.60;;;;;;4941612;29;20203;-71
2022/09/17 11:48:25;;;;;;;2.33;1.33;;;23.40;46.70;;;;;;4942021;28;20195;-71
2022/09/17 11:50:54;;;;;;;2.05;1.10;;;23.40;46.60;;;;;;4941951;29;20222;-71
2022/09/17 11:53:23;;;;;;;3.03;1.25;;;23.40;46.30;;;;;;4941634;29;20206;-71
2022/09/17 11:55:53;;;;;;;2.60;1.35;;;23.40;46.50;;;;;;4941935;29;20253;-71
2022/09/17 11:58:24;;;;;;;1.45;1.08;;;23.40;46.50;;;;;;4927590;28;20784;-72
2022/09/17 12:00:54;;;;;;;4.90;1.65;;;23.40;46.60;;;;;;4941401;29;20195;-72
2022/09/17 12:03:24;;;;;;;3.53;1.05;;;23.50;47.30;;;;;;4941389;29;20263;-72
2022/09/17 12:05:53;;;;;;;5.25;1.52;;;23.50;46.80;;;;;;4941413;29;20199;-72
2022/09/17 12:08:22;;;;;;;3.78;1.60;;;23.50;46.50;;;;;;4941726;28;20207;-73
2022/09/17 12:10:51;;;;;;;4.60;1.55;;;23.50;46.80;;;;;;4941249;29;20239;-73
2022/09/17 12:13:30;;;;;;;3.10;1.33;;;23.50;46.00;;;;;;4925725;29;20302;-73
2022/09/17 12:16:15;;;;;;;2.60;1.45;;;23.50;45.80;;;;;;4957416;28;20187;-72
2022/09/17 12:18:55;;;;;;;4.00;1.42;;;23.40;46.80;;;;;;4941073;29;20237;-73
2022/09/17 12:21:25;;;;;;;4.43;1.60;;;23.40;46.80;;;;;;4941977;29;20198;-73
2022/09/17 12:23:54;;;;;;;3.05;1.20;;;23.40;47.00;;;;;;4940992;29;20213;-73
2022/09/17 12:26:34;;;;;;;2.15;1.10;;;23.40;47.10;;;;;;4954601;28;20216;-73
2022/09/17 12:29:06;;;;;;;3.05;1.33;;;23.30;47.10;;;;;;4960161;28;20224;-73
2022/09/17 12:31:36;;;;;;;3.53;1.23;;;23.30;47.50;;;;;;4977591;28;20198;-73
2022/09/17 12:34:10;;;;;;;2.13;1.33;;;23.30;47.30;;;;;;4959985;28;20208;-71
2022/09/17 12:36:41;;;;;;;2.15;1.33;;;23.30;47.70;;;;;;4960032;28;20567;-71
2022/09/17 12:39:54;;;;;;;2.75;1.23;;;23.20;48.00;;;;;;4960349;28;20222;-71
2022/09/17 12:42:30;;;;;;;3.40;1.40;;;23.20;47.90;;;;;;4960750;28;20285;-71
2022/09/17 12:45:06;;;;;;;3.65;1.30;;;23.20;48.10;;;;;;4959903;28;20252;-71
2022/09/17 12:48:02;;;;;;;3.13;1.20;;;23.20;49.00;;;;;;4959938;28;20190;-71
2022/09/17 12:50:36;;;;;;;2.60;1.17;;;23.20;48.30;;;;;;4959702;28;20281;-71
2022/09/17 12:53:14;;;;;;;3.67;1.35;;;23.30;48.40;;;;;;4959944;28;20205;-71
2022/09/17 12:55:48;;;;;;;3.35;1.40;;;23.30;48.50;;;;;;4960533;28;20205;-71
2022/09/17 12:58:23;;;;;;;3.45;1.48;;;23.20;48.70;;;;;;4944312;28;20233;-71
2022/09/17 13:00:53;;;;;;;4.18;1.70;;;23.20;49.00;;;;;;4959634;28;20190;-71
2022/09/17 13:03:21;;;;;;;2.05;1.20;;;23.20;48.80;;;;;;4959410;28;20206;-71